Caiabu, Brazil
Current Conditions -  °F | °C
As of 9:00 PM on Saturday 25 Oct 2014 (Local Time) from SBDN Reporting Station
Clear Clear  
Wind Chill: 70°   Ceiling: Unl
Heat Index: 70°   Visibility: 6mi
Dew Point: 66°   Wind: 5mph
Humidity: 88%   Direction: 70°ENE
Pressure: 29.91"   Gusts: NA
Location:  22.01°S, 51.24°W
Report Text: SBDN 252300Z 07004KT CAVOK 21/19 Q1013
Loading
Personal Weather Stations






























Interactive Weather Map
Tropical Storm Tracking
New forecast layout! Learn more

10-Day Weather Forecast

Advertisements
Track Severe Weather on mobile